createdAt,value
2018-11-10T00:01:28.863Z,62.13
2018-11-10T00:04:00.715Z,61.00
2018-11-10T00:06:32.545Z,55.60
2018-11-10T00:09:04.815Z,54.50
2018-11-10T00:11:38.883Z,53.77
2018-11-10T00:14:10.690Z,58.43
2018-11-10T00:16:42.717Z,47.17
2018-11-10T00:19:14.489Z,42.50
2018-11-10T00:21:46.298Z,39.97
2018-11-10T00:24:18.176Z,53.03
2018-11-10T00:26:49.974Z,45.43
2018-11-10T00:29:21.815Z,41.83
2018-11-10T00:31:53.628Z,43.03
2018-11-10T00:34:25.459Z,37.27
2018-11-10T00:36:57.257Z,39.40
2018-11-10T00:39:29.100Z,40.57
2018-11-10T00:42:00.930Z,40.57
2018-11-10T00:44:32.778Z,43.60
2018-11-10T00:47:04.583Z,40.03
2018-11-10T00:49:36.372Z,43.50
2018-11-10T00:52:08.166Z,36.30
2018-11-10T00:54:46.308Z,40.70
2018-11-10T00:57:18.125Z,42.80
2018-11-10T00:59:50.046Z,45.40
2018-11-10T01:02:21.842Z,38.10
2018-11-10T01:04:53.668Z,34.30
2018-11-10T01:07:25.471Z,36.67
2018-11-10T01:09:59.552Z,33.43
2018-11-10T01:12:29.278Z,40.77
2018-11-10T01:15:03.544Z,44.07
2018-11-10T01:17:40.657Z,39.50
2018-11-10T01:20:13.300Z,36.30
2018-11-10T01:22:45.224Z,35.40
2018-11-10T01:25:17.032Z,38.67
2018-11-10T01:27:48.862Z,39.00
2018-11-10T01:30:20.640Z,41.90
2018-11-10T01:32:52.428Z,36.20
2018-11-10T01:35:26.805Z,32.37
2018-11-10T01:37:58.598Z,34.10
2018-11-10T01:40:30.576Z,33.63
2018-11-10T01:43:02.384Z,34.03
2018-11-10T01:45:34.185Z,35.50
2018-11-10T01:48:06.252Z,32.73
2018-11-10T01:50:38.085Z,37.90
2018-11-10T01:53:09.948Z,36.83
2018-11-10T01:55:44.462Z,39.27
2018-11-10T01:58:18.768Z,30.10
2018-11-10T02:00:50.583Z,31.80
2018-11-10T02:03:22.410Z,29.10
2018-11-10T02:05:54.224Z,30.90
2018-11-10T02:08:26.009Z,28.00
2018-11-10T02:10:57.853Z,25.90
2018-11-10T02:13:29.644Z,26.67
2018-11-10T02:16:01.474Z,26.47
2018-11-10T02:18:33.280Z,33.60
2018-11-10T02:21:05.109Z,27.53
2018-11-10T02:23:36.918Z,29.50
2018-11-10T02:26:08.733Z,29.10
2018-11-10T02:28:40.522Z,39.17
2018-11-10T02:31:12.341Z,34.60
2018-11-10T02:33:44.198Z,33.87
2018-11-10T02:36:16.006Z,28.90
2018-11-10T02:38:47.871Z,31.07
2018-11-10T02:41:19.632Z,30.50
2018-11-10T02:43:51.445Z,25.80
2018-11-10T02:46:23.255Z,26.77
2018-11-10T02:48:55.072Z,22.20
2018-11-10T02:51:26.937Z,22.80
2018-11-10T02:53:58.718Z,26.87
2018-11-10T02:56:30.547Z,25.97
2018-11-10T02:59:04.718Z,26.83
2018-11-10T03:01:36.531Z,25.20
2018-11-10T03:04:08.698Z,28.30
2018-11-10T03:06:40.523Z,25.00
2018-11-10T03:09:12.312Z,23.07
2018-11-10T03:11:44.163Z,27.77
2018-11-10T03:14:15.968Z,42.67
2018-11-10T03:16:47.827Z,24.33
2018-11-10T03:19:19.637Z,26.27
2018-11-10T03:21:51.720Z,25.77
2018-11-10T03:24:26.527Z,25.63
2018-11-10T03:26:58.375Z,25.67
2018-11-10T03:29:30.205Z,33.43
2018-11-10T03:32:02.018Z,31.83
2018-11-10T03:34:33.817Z,29.03
2018-11-10T03:37:05.909Z,33.63
2018-11-10T03:39:37.721Z,44.03
2018-11-10T03:42:09.553Z,27.33
2018-11-10T03:44:41.351Z,35.07
2018-11-10T03:47:13.158Z,98.60
2018-11-10T03:49:45.008Z,26.00
2018-11-10T03:52:16.799Z,27.97
2018-11-10T03:54:48.621Z,27.30
2018-11-10T03:57:20.439Z,25.93
2018-11-10T03:59:52.304Z,28.83
2018-11-10T04:02:24.099Z,27.77
2018-11-10T04:04:58.852Z,28.07
2018-11-10T04:07:30.721Z,25.97
2018-11-10T04:10:02.564Z,28.57
2018-11-10T04:12:34.410Z,29.37
2018-11-10T04:15:06.473Z,32.93
2018-11-10T04:17:38.323Z,28.67
2018-11-10T04:20:11.119Z,31.70
2018-11-10T04:22:43.003Z,31.27
2018-11-10T04:25:14.897Z,27.60
2018-11-10T04:27:46.747Z,27.20
2018-11-10T04:30:18.533Z,24.73
2018-11-10T04:32:50.330Z,24.60
2018-11-10T04:35:22.124Z,26.20
2018-11-10T04:37:53.973Z,24.30
2018-11-10T04:40:25.763Z,26.67
2018-11-10T04:42:57.581Z,24.90
2018-11-10T04:45:29.394Z,21.67
2018-11-10T04:48:01.211Z,22.63
2018-11-10T04:50:33.021Z,22.13
2018-11-10T04:53:04.856Z,24.50
2018-11-10T04:55:36.656Z,22.33
2018-11-10T04:58:08.516Z,26.17
2018-11-10T05:00:40.301Z,24.13
2018-11-10T05:03:12.107Z,29.40
2018-11-10T05:05:43.880Z,37.23
2018-11-10T05:08:15.851Z,49.53
2018-11-10T05:10:47.655Z,84.27
2018-11-10T05:13:19.519Z,83.70
2018-11-10T05:15:51.351Z,38.73
2018-11-10T05:18:23.165Z,44.87
2018-11-10T05:20:54.958Z,38.70
2018-11-10T05:23:26.768Z,71.87
2018-11-10T05:25:58.582Z,33.67
2018-11-10T05:28:30.411Z,38.60
2018-11-10T05:31:02.282Z,41.43
2018-11-10T05:33:34.014Z,38.07
2018-11-10T05:36:05.952Z,39.70
2018-11-10T05:38:37.786Z,36.63
2018-11-10T05:41:09.591Z,35.13
2018-11-10T05:43:41.416Z,42.03
2018-11-10T05:46:13.235Z,34.07
2018-11-10T05:48:45.200Z,121.77
2018-11-10T05:51:17.018Z,35.63
2018-11-10T05:53:48.834Z,37.87
2018-11-10T05:56:20.626Z,42.93
2018-11-10T05:58:52.437Z,34.60
2018-11-10T06:01:24.257Z,53.23
2018-11-10T06:03:56.087Z,38.07
2018-11-10T06:06:27.919Z,39.63
2018-11-10T06:08:59.793Z,35.90
2018-11-10T06:11:31.534Z,167.77
2018-11-10T06:14:03.372Z,45.00
2018-11-10T06:16:35.319Z,51.40
2018-11-10T06:19:07.314Z,35.27
2018-11-10T06:21:39.211Z,80.03
2018-11-10T06:24:11.062Z,53.83
2018-11-10T06:26:42.864Z,35.17
2018-11-10T06:29:14.693Z,36.57
2018-11-10T06:31:46.580Z,47.43
2018-11-10T06:34:18.391Z,36.27
2018-11-10T06:36:50.202Z,42.87
2018-11-10T06:39:22.035Z,39.70
2018-11-10T06:41:53.852Z,36.50
2018-11-10T06:44:25.756Z,114.33
2018-11-10T06:46:57.525Z,36.10
2018-11-10T06:49:29.341Z,40.23
2018-11-10T06:52:01.245Z,117.97
2018-11-10T06:54:33.060Z,53.37
2018-11-10T06:57:04.996Z,48.93
2018-11-10T06:59:37.223Z,38.03
2018-11-10T07:02:09.643Z,37.00
2018-11-10T07:04:41.445Z,40.37
2018-11-10T07:07:13.220Z,41.40
2018-11-10T07:09:45.068Z,30.37
2018-11-10T07:12:16.927Z,29.17
2018-11-10T07:14:48.777Z,31.73
2018-11-10T07:17:20.624Z,33.80
2018-11-10T07:19:52.468Z,36.10
2018-11-10T07:22:24.321Z,53.87
2018-11-10T07:24:56.165Z,42.20
2018-11-10T07:27:27.979Z,39.00
2018-11-10T07:29:59.800Z,30.20
2018-11-10T07:32:31.619Z,37.13
2018-11-10T07:35:03.494Z,37.60
2018-11-10T07:37:35.494Z,33.03
2018-11-10T07:40:09.015Z,32.97
2018-11-10T07:42:40.804Z,27.53
2018-11-10T07:45:14.406Z,32.67
2018-11-10T07:47:46.744Z,28.47
2018-11-10T07:50:18.578Z,28.80
2018-11-10T07:52:50.360Z,22.77
2018-11-10T07:55:22.182Z,32.57
2018-11-10T07:57:54.133Z,42.90
2018-11-10T08:00:25.829Z,26.13
2018-11-10T08:02:57.709Z,31.20
2018-11-10T08:05:29.591Z,26.70
2018-11-10T08:08:01.431Z,26.67
2018-11-10T08:10:33.382Z,25.87
2018-11-10T08:13:05.321Z,24.20
2018-11-10T08:15:37.170Z,27.37
2018-11-10T08:18:09.003Z,23.60
2018-11-10T08:20:40.841Z,27.13
2018-11-10T08:23:12.654Z,32.67
2018-11-10T08:25:44.533Z,29.67
2018-11-10T08:28:18.667Z,26.93
2018-11-10T08:30:50.507Z,30.50
2018-11-10T08:33:22.378Z,26.70
2018-11-10T08:35:54.299Z,25.17
2018-11-10T08:38:26.174Z,23.73
2018-11-10T08:40:58.116Z,22.33
2018-11-10T08:43:29.897Z,22.20
2018-11-10T08:46:01.775Z,21.00
2018-11-10T08:48:33.617Z,24.90
2018-11-10T08:51:05.486Z,21.50
2018-11-10T08:53:37.329Z,25.73
2018-11-10T08:56:09.697Z,23.40
2018-11-10T08:58:41.957Z,26.43
2018-11-10T09:01:13.763Z,22.73
2018-11-10T09:03:46.654Z,25.67
2018-11-10T09:06:18.477Z,26.83
2018-11-10T09:08:51.570Z,21.73
2018-11-10T09:11:23.448Z,29.30
2018-11-10T09:13:55.384Z,23.47
2018-11-10T09:16:27.280Z,27.20
2018-11-10T09:18:59.484Z,24.77
2018-11-10T09:21:31.607Z,23.27
2018-11-10T09:24:03.512Z,23.13
2018-11-10T09:26:35.410Z,27.70
2018-11-10T09:29:07.745Z,23.33
2018-11-10T09:31:39.690Z,25.73
2018-11-10T09:34:13.890Z,26.73
2018-11-10T09:36:43.648Z,24.80
2018-11-10T09:39:15.504Z,25.10
2018-11-10T09:41:50.279Z,21.60
2018-11-10T09:44:22.329Z,22.20
2018-11-10T09:46:54.331Z,20.90
2018-11-10T09:49:26.397Z,21.60
2018-11-10T09:51:58.564Z,23.53
2018-11-10T09:54:30.456Z,22.00
2018-11-10T09:57:02.363Z,22.70
2018-11-10T09:59:36.899Z,23.13
2018-11-10T10:02:09.435Z,23.03
2018-11-10T10:04:41.035Z,21.17
2018-11-10T10:07:12.949Z,18.13
2018-11-10T10:09:44.856Z,21.93
2018-11-10T10:12:16.826Z,20.70
2018-11-10T10:14:49.009Z,23.53
2018-11-10T10:17:20.929Z,20.10
2018-11-10T10:19:53.118Z,20.90
2018-11-10T10:22:25.625Z,18.73
2018-11-10T10:24:57.344Z,23.03
2018-11-10T10:27:29.796Z,31.60
2018-11-10T10:30:03.972Z,19.40
2018-11-10T10:32:33.667Z,18.97
2018-11-10T10:35:05.571Z,21.50
2018-11-10T10:37:37.405Z,19.83
2018-11-10T10:40:11.980Z,21.70
2018-11-10T10:42:44.579Z,15.97
2018-11-10T10:45:25.667Z,20.03
2018-11-10T10:47:57.533Z,16.30
2018-11-10T10:50:29.362Z,24.10
2018-11-10T10:53:01.280Z,18.03
2018-11-10T10:55:33.356Z,23.13
2018-11-10T10:58:05.464Z,27.00
2018-11-10T11:00:54.575Z,22.13
2018-11-10T11:03:44.012Z,18.70
2018-11-10T11:06:15.939Z,17.80
2018-11-10T11:08:47.842Z,20.73
2018-11-10T11:11:19.705Z,19.80
2018-11-10T11:13:51.631Z,19.57
2018-11-10T11:16:23.669Z,16.57
2018-11-10T11:18:57.699Z,20.23
2018-11-10T11:21:29.508Z,21.10
2018-11-10T11:24:01.342Z,22.47
2018-11-10T11:26:33.994Z,18.37
2018-11-10T11:29:08.408Z,16.30
2018-11-10T11:31:40.197Z,21.87
2018-11-10T11:34:12.046Z,26.73
2018-11-10T11:36:43.874Z,19.10
2018-11-10T11:39:15.766Z,16.40
2018-11-10T11:41:47.657Z,16.73
2018-11-10T11:44:19.469Z,18.20
2018-11-10T11:46:51.596Z,19.10
2018-11-10T11:49:23.402Z,18.23
2018-11-10T11:51:55.361Z,18.93
2018-11-10T11:54:27.193Z,23.93
2018-11-10T11:56:59.026Z,16.93
2018-11-10T11:59:30.912Z,15.90
2018-11-10T12:02:02.883Z,15.63
2018-11-10T12:04:34.712Z,18.63
2018-11-10T12:07:07.010Z,19.87
2018-11-10T12:09:38.945Z,18.70
2018-11-10T12:12:10.769Z,19.40
2018-11-10T12:14:42.670Z,20.93
2018-11-10T12:17:14.538Z,19.50
2018-11-10T12:19:46.417Z,24.07
2018-11-10T12:22:18.292Z,24.13
2018-11-10T12:24:50.264Z,24.73
2018-11-10T12:27:22.164Z,22.03
2018-11-10T12:29:54.066Z,20.60
2018-11-10T12:32:25.970Z,23.47
2018-11-10T12:34:57.970Z,21.30
2018-11-10T12:37:29.870Z,22.80
2018-11-10T12:40:01.811Z,27.70
2018-11-10T12:42:33.654Z,23.30
2018-11-10T12:45:05.893Z,25.40
2018-11-10T12:47:41.316Z,22.70
2018-11-10T12:50:16.398Z,23.83
2018-11-10T12:52:48.240Z,25.27
2018-11-10T12:55:20.311Z,24.93
2018-11-10T12:57:52.205Z,21.37
2018-11-10T13:00:24.202Z,24.20
2018-11-10T13:02:56.290Z,26.67
2018-11-10T13:05:28.363Z,26.07
2018-11-10T13:08:00.231Z,25.17
2018-11-10T13:10:33.123Z,23.87
2018-11-10T13:13:04.970Z,30.60
2018-11-10T13:15:39.155Z,26.10
2018-11-10T13:18:08.765Z,27.10
2018-11-10T13:20:40.701Z,26.17
2018-11-10T13:23:12.583Z,28.57
2018-11-10T13:25:44.445Z,33.57
2018-11-10T13:28:16.616Z,30.63
2018-11-10T13:30:48.592Z,28.40
2018-11-10T13:33:20.333Z,29.00
2018-11-10T13:35:52.226Z,32.83
2018-11-10T13:38:24.087Z,32.33
2018-11-10T13:40:56.040Z,35.13
2018-11-10T13:43:27.890Z,33.53
2018-11-10T13:45:59.731Z,29.40
2018-11-10T13:48:31.632Z,31.80
2018-11-10T13:51:03.834Z,27.37
2018-11-10T13:53:35.356Z,31.50
2018-11-10T13:56:07.244Z,31.60
2018-11-10T13:58:39.051Z,36.23
2018-11-10T14:01:10.901Z,26.53
2018-11-10T14:03:45.496Z,27.70
2018-11-10T14:06:17.477Z,29.97
2018-11-10T14:08:49.335Z,26.73
2018-11-10T14:11:21.198Z,36.53
2018-11-10T14:13:53.089Z,32.70
2018-11-10T14:16:24.966Z,31.63
2018-11-10T14:18:56.784Z,36.23
2018-11-10T14:21:28.825Z,26.17
2018-11-10T14:24:00.661Z,31.53
2018-11-10T14:26:32.793Z,34.10
2018-11-10T14:29:04.625Z,30.90
2018-11-10T14:31:36.568Z,32.93
2018-11-10T14:34:08.646Z,31.70
2018-11-10T14:36:40.851Z,25.63
2018-11-10T14:39:12.960Z,30.87
2018-11-10T14:41:44.831Z,33.63
2018-11-10T14:44:16.722Z,33.63
2018-11-10T14:46:48.724Z,32.60
2018-11-10T14:49:20.570Z,30.27
2018-11-10T14:51:52.585Z,41.97
2018-11-10T14:54:24.451Z,46.07
2018-11-10T14:56:56.360Z,46.60
2018-11-10T14:59:28.244Z,49.23
2018-11-10T15:02:00.431Z,50.53
2018-11-10T15:04:32.384Z,50.80
2018-11-10T15:07:04.305Z,49.90
2018-11-10T15:09:36.447Z,56.37
2018-11-10T15:12:08.700Z,59.60
2018-11-10T15:14:40.642Z,68.33
2018-11-10T15:17:15.135Z,69.27
2018-11-10T15:19:46.957Z,65.60
2018-11-10T15:22:18.829Z,60.80
2018-11-10T15:24:50.659Z,52.60
2018-11-10T15:27:22.526Z,64.63
2018-11-10T15:29:54.449Z,72.13
2018-11-10T15:32:26.374Z,63.50
2018-11-10T15:34:58.247Z,68.70
2018-11-10T15:37:30.341Z,69.17
2018-11-10T15:40:02.159Z,64.60
2018-11-10T15:42:34.024Z,68.80
2018-11-10T15:45:05.961Z,69.80
2018-11-10T15:47:37.845Z,67.90
2018-11-10T15:50:11.763Z,64.70
2018-11-10T15:52:44.037Z,65.30
2018-11-10T15:55:15.961Z,79.83
2018-11-10T15:57:47.931Z,71.30
2018-11-10T16:00:20.819Z,67.77
2018-11-10T16:02:52.738Z,67.20
2018-11-10T16:05:24.647Z,63.53
2018-11-10T16:07:56.549Z,75.90
2018-11-10T16:10:28.636Z,71.67
2018-11-10T16:13:00.516Z,67.73
2018-11-10T16:15:32.387Z,70.87
2018-11-10T16:18:04.260Z,80.67
2018-11-10T16:20:36.179Z,69.37
2018-11-10T16:23:07.992Z,77.00
2018-11-10T16:25:39.904Z,78.20
2018-11-10T16:28:11.839Z,84.50
2018-11-10T16:30:43.686Z,83.03
2018-11-10T16:33:15.531Z,89.13
2018-11-10T16:35:47.409Z,81.13
2018-11-10T16:38:19.219Z,77.73
2018-11-10T16:40:51.026Z,82.90
2018-11-10T16:43:22.992Z,87.83
2018-11-10T16:45:54.831Z,79.63
2018-11-10T16:48:26.749Z,83.07
2018-11-10T16:50:58.580Z,94.07
2018-11-10T16:53:30.458Z,77.60
2018-11-10T16:56:02.342Z,97.60
2018-11-10T16:58:34.216Z,94.97
2018-11-10T17:01:06.193Z,84.67
2018-11-10T17:03:38.096Z,96.73
2018-11-10T17:06:10.087Z,80.70
2018-11-10T17:08:41.856Z,82.50
2018-11-10T17:11:13.632Z,77.00
2018-11-10T17:13:45.734Z,93.93
2018-11-10T17:16:17.537Z,105.23
2018-11-10T17:18:49.703Z,95.67
2018-11-10T17:21:21.501Z,92.60
2018-11-10T17:23:53.469Z,89.90
2018-11-10T17:26:25.293Z,82.87
2018-11-10T17:28:57.234Z,76.27
2018-11-10T17:31:30.815Z,77.83
2018-11-10T17:34:00.934Z,80.53
2018-11-10T17:36:32.734Z,86.40
2018-11-10T17:39:05.134Z,86.80
2018-11-10T17:41:36.856Z,90.47
2018-11-10T17:44:09.100Z,84.90
2018-11-10T17:46:43.606Z,90.50
2018-11-10T17:49:15.578Z,88.53
2018-11-10T17:51:47.403Z,84.43
2018-11-10T17:54:19.252Z,88.30
2018-11-10T17:56:51.123Z,95.47
2018-11-10T17:59:22.991Z,86.20
2018-11-10T18:01:54.938Z,91.87
2018-11-10T18:04:26.984Z,97.30
2018-11-10T18:06:58.804Z,93.73
2018-11-10T18:09:30.702Z,97.50
2018-11-10T18:12:02.544Z,94.10
2018-11-10T18:14:34.434Z,103.03
2018-11-10T18:17:06.317Z,89.90
2018-11-10T18:19:38.163Z,91.00
2018-11-10T18:22:10.194Z,92.50
2018-11-10T18:24:42.061Z,101.63
2018-11-10T18:27:13.897Z,85.60
2018-11-10T18:29:45.759Z,95.53
2018-11-10T18:32:17.776Z,102.93
2018-11-10T18:34:49.603Z,90.07
2018-11-10T18:37:21.449Z,96.93
2018-11-10T18:39:53.365Z,92.20
2018-11-10T18:42:25.143Z,86.00
2018-11-10T18:44:57.037Z,79.53
2018-11-10T18:47:28.917Z,82.30
2018-11-10T18:50:01.665Z,82.77
2018-11-10T18:52:33.467Z,95.03
2018-11-10T18:55:05.357Z,80.10
2018-11-10T18:57:37.351Z,74.63
2018-11-10T19:00:13.084Z,89.07
2018-11-10T19:02:44.885Z,82.90
2018-11-10T19:05:17.963Z,88.50
2018-11-10T19:07:49.774Z,78.83
2018-11-10T19:10:21.694Z,85.70
2018-11-10T19:12:53.591Z,88.97
2018-11-10T19:15:25.377Z,89.67
2018-11-10T19:17:57.219Z,77.43
2018-11-10T19:20:29.082Z,91.87
2018-11-10T19:23:00.989Z,77.83
2018-11-10T19:25:32.902Z,82.43
2018-11-10T19:28:04.714Z,87.33
2018-11-10T19:30:36.523Z,75.43
2018-11-10T19:33:08.660Z,82.77
2018-11-10T19:35:40.523Z,85.63
2018-11-10T19:38:12.532Z,75.53
2018-11-10T19:40:44.505Z,88.70
2018-11-10T19:43:16.910Z,71.80
2018-11-10T19:45:48.906Z,82.20
2018-11-10T19:48:20.880Z,94.40
2018-11-10T19:50:52.955Z,69.87
2018-11-10T19:53:24.842Z,75.77
2018-11-10T19:55:57.038Z,70.87
2018-11-10T19:58:28.909Z,81.33
2018-11-10T20:01:03.559Z,95.57
2018-11-10T20:03:35.411Z,86.33
2018-11-10T20:06:07.404Z,83.03
2018-11-10T20:08:39.249Z,87.53
2018-11-10T20:11:11.925Z,80.03
2018-11-10T20:13:44.059Z,81.93
2018-11-10T20:16:15.976Z,82.60
2018-11-10T20:18:48.215Z,97.50
2018-11-10T20:21:23.005Z,95.33
2018-11-10T20:23:54.856Z,80.23
2018-11-10T20:26:26.804Z,88.53
2018-11-10T20:29:01.441Z,89.67
2018-11-10T20:31:33.403Z,98.57
2018-11-10T20:34:07.404Z,104.70
2018-11-10T20:36:37.357Z,106.97
2018-11-10T20:39:11.289Z,105.07
2018-11-10T20:41:43.334Z,116.80
2018-11-10T20:44:15.381Z,104.63
2018-11-10T20:46:47.306Z,130.40
2018-11-10T20:49:19.132Z,125.33
2018-11-10T20:51:51.162Z,124.80
2018-11-10T20:54:23.119Z,132.97
2018-11-10T20:56:54.995Z,116.03
2018-11-10T20:59:26.850Z,111.53
2018-11-10T21:01:58.823Z,134.90
2018-11-10T21:04:30.677Z,136.40
2018-11-10T21:07:02.562Z,111.50
2018-11-10T21:09:34.387Z,99.30
2018-11-10T21:12:06.304Z,89.50
2018-11-10T21:14:38.180Z,95.40
2018-11-10T21:17:14.345Z,92.60
2018-11-10T21:19:46.204Z,92.53
2018-11-10T21:22:18.224Z,93.53
2018-11-10T21:24:50.102Z,101.47
2018-11-10T21:27:21.998Z,90.93
2018-11-10T21:29:53.902Z,90.40
2018-11-10T21:32:25.681Z,85.67
2018-11-10T21:34:57.549Z,103.70
2018-11-10T21:37:29.511Z,123.43
2018-11-10T21:40:01.369Z,77.00
2018-11-10T21:42:33.557Z,102.93
2018-11-10T21:45:06.068Z,89.37
2018-11-10T21:47:37.949Z,122.53
2018-11-10T21:50:12.722Z,114.97
2018-11-10T21:52:45.261Z,101.43
2018-11-10T21:55:18.347Z,146.67
2018-11-10T21:57:50.609Z,93.23
2018-11-10T22:00:23.258Z,109.80
2018-11-10T22:02:55.281Z,194.33
2018-11-10T22:05:27.401Z,117.87
2018-11-10T22:07:59.387Z,247.30
2018-11-10T22:10:31.572Z,68.03
2018-11-10T22:13:05.168Z,71.60
2018-11-10T22:15:35.316Z,71.87
2018-11-10T22:18:07.178Z,56.97
2018-11-10T22:20:39.064Z,58.33
2018-11-10T22:23:10.982Z,57.00
2018-11-10T22:25:42.710Z,64.90
2018-11-10T22:28:14.581Z,124.03
2018-11-10T22:30:46.453Z,73.87
2018-11-10T22:33:18.292Z,61.67
2018-11-10T22:35:50.089Z,68.97
2018-11-10T22:38:22.030Z,61.10
2018-11-10T22:40:53.844Z,65.23
2018-11-10T22:43:25.650Z,53.57
2018-11-10T22:45:57.471Z,62.60
2018-11-10T22:48:29.342Z,68.77
2018-11-10T22:51:01.166Z,57.77
2018-11-10T22:53:33.004Z,171.63
2018-11-10T22:56:04.823Z,61.00
2018-11-10T22:58:36.705Z,53.97
2018-11-10T23:01:10.082Z,52.10
2018-11-10T23:03:42.129Z,119.23
2018-11-10T23:06:13.901Z,86.93
2018-11-10T23:08:45.771Z,66.83
2018-11-10T23:11:17.553Z,56.00
2018-11-10T23:13:49.398Z,66.03
2018-11-10T23:16:21.260Z,66.90
2018-11-10T23:18:53.149Z,54.43
2018-11-10T23:21:25.002Z,67.97
2018-11-10T23:23:56.852Z,51.60
2018-11-10T23:26:28.652Z,54.07
2018-11-10T23:29:00.507Z,55.43
2018-11-10T23:31:32.310Z,70.77
2018-11-10T23:34:04.170Z,87.47
2018-11-10T23:36:35.992Z,74.27
2018-11-10T23:39:12.596Z,55.00
2018-11-10T23:41:44.414Z,48.83
2018-11-10T23:44:16.269Z,47.13
2018-11-10T23:46:48.093Z,44.93
2018-11-10T23:49:19.942Z,53.83
2018-11-10T23:51:51.776Z,59.37
2018-11-10T23:54:23.838Z,49.73
2018-11-10T23:56:55.698Z,55.90
2018-11-10T23:59:27.561Z,60.73
